createdAt,value
2016-11-01T00:00:07.087Z,12.22
2016-11-01T00:01:17.365Z,12.16
2016-11-01T00:02:27.655Z,12.33
2016-11-01T00:03:37.017Z,12.26
2016-11-01T00:04:47.311Z,12.25
2016-11-01T00:05:57.286Z,12.25
2016-11-01T00:07:07.587Z,12.2
2016-11-01T00:08:17.879Z,12.25
2016-11-01T00:09:28.193Z,12.15
2016-11-01T00:10:38.537Z,12.25
2016-11-01T00:11:48.837Z,12.26
2016-11-01T00:12:58.811Z,12.26
2016-11-01T00:14:09.107Z,12.2
2016-11-01T00:15:19.095Z,12.2
2016-11-01T00:16:28.761Z,12.2
2016-11-01T00:17:38.740Z,12.2
2016-11-01T00:18:48.409Z,12.29
2016-11-01T00:19:58.071Z,12.37
2016-11-01T00:21:08.074Z,12.31
2016-11-01T00:22:18.396Z,12.37
2016-11-01T00:23:28.686Z,12.31
2016-11-01T00:24:38.670Z,12.36
2016-11-01T00:25:48.971Z,12.31
2016-11-01T00:26:59.259Z,12.23
2016-11-01T00:28:09.548Z,12.23
2016-11-01T00:29:19.520Z,12.19
2016-11-01T00:30:29.497Z,12.25
2016-11-01T00:31:39.478Z,12.16
2016-11-01T00:32:49.764Z,12.25
2016-11-01T00:34:00.067Z,12.2
2016-11-01T00:35:10.083Z,12.22
2016-11-01T00:36:20.075Z,12.25
2016-11-01T00:37:30.358Z,12.23
2016-11-01T00:38:40.083Z,12.18
2016-11-01T00:39:50.069Z,12.18
2016-11-01T00:41:00.366Z,12.33
2016-11-01T00:42:10.654Z,12.28
2016-11-01T00:43:20.633Z,12.36
2016-11-01T00:44:30.622Z,12.37
2016-11-01T00:45:40.914Z,12.44
2016-11-01T00:46:50.600Z,12.48
2016-11-01T00:48:00.923Z,12.44
2016-11-01T00:49:11.209Z,12.44
2016-11-01T00:50:21.491Z,12.45
2016-11-01T00:51:31.469Z,12.51
2016-11-01T00:52:41.468Z,12.61
2016-11-01T00:53:51.750Z,12.56
2016-11-01T00:55:01.742Z,12.61
2016-11-01T00:56:12.268Z,12.62
2016-11-01T00:57:21.956Z,12.62
2016-11-01T00:58:32.244Z,12.61
2016-11-01T00:59:42.537Z,12.73
2016-11-01T01:00:52.856Z,12.71
2016-11-01T01:02:03.131Z,12.66
2016-11-01T01:03:13.423Z,12.78
2016-11-01T01:04:23.401Z,12.8
2016-11-01T01:05:33.062Z,12.83
2016-11-01T01:06:43.341Z,12.86
2016-11-01T01:07:53.642Z,12.91
2016-11-01T01:09:03.933Z,12.83
2016-11-01T01:10:13.614Z,12.88
2016-11-01T01:11:22.967Z,12.84
2016-11-01T01:12:32.323Z,12.86
2016-11-01T01:13:42.604Z,12.89
2016-11-01T01:14:51.972Z,13.02
2016-11-01T01:16:01.652Z,12.86
2016-11-01T01:17:11.945Z,12.91
2016-11-01T01:18:21.926Z,12.99
2016-11-01T01:19:32.212Z,12.89
2016-11-01T01:20:42.506Z,12.91
2016-11-01T01:21:52.482Z,12.81
2016-11-01T01:23:02.769Z,12.76
2016-11-01T01:24:13.084Z,12.73
2016-11-01T01:25:23.362Z,12.86
2016-11-01T01:26:33.653Z,12.78
2016-11-01T01:27:43.939Z,12.8
2016-11-01T01:28:54.218Z,12.8
2016-11-01T01:30:03.884Z,12.83
2016-11-01T01:31:13.565Z,12.83
2016-11-01T01:32:23.871Z,12.78
2016-11-01T01:33:34.154Z,12.89
2016-11-01T01:34:44.430Z,12.89
2016-11-01T01:35:54.102Z,12.81
2016-11-01T01:37:04.378Z,12.74
2016-11-01T01:38:14.366Z,12.71
2016-11-01T01:39:24.686Z,12.71
2016-11-01T01:40:34.669Z,12.81
2016-11-01T01:41:44.646Z,12.58
2016-11-01T01:42:54.616Z,12.55
2016-11-01T01:44:04.893Z,12.62
2016-11-01T01:45:14.885Z,12.62
2016-11-01T01:46:24.862Z,12.61
2016-11-01T01:47:34.874Z,12.58
2016-11-01T01:48:44.841Z,12.7
2016-11-01T01:49:54.813Z,12.7
2016-11-01T01:51:04.795Z,12.63
2016-11-01T01:52:15.085Z,12.69
2016-11-01T01:53:25.078Z,12.66
2016-11-01T01:54:35.393Z,12.71
2016-11-01T01:55:45.392Z,12.74
2016-11-01T01:56:55.689Z,12.8
2016-11-01T01:58:05.984Z,12.83
2016-11-01T01:59:15.982Z,12.81
2016-11-01T02:00:26.274Z,12.91
2016-11-01T02:01:36.553Z,12.89
2016-11-01T02:02:46.845Z,12.92
2016-11-01T02:03:56.828Z,12.84
2016-11-01T02:05:07.129Z,12.91
2016-11-01T02:06:17.106Z,12.99
2016-11-01T02:07:27.093Z,13.01
2016-11-01T02:08:37.371Z,12.96
2016-11-01T02:09:47.360Z,12.92
2016-11-01T02:10:57.643Z,12.94
2016-11-01T02:12:07.661Z,12.98
2016-11-01T02:13:17.966Z,13.01
2016-11-01T02:14:27.949Z,13.03
2016-11-01T02:15:38.237Z,12.98
2016-11-01T02:16:48.238Z,12.92
2016-11-01T02:17:58.213Z,12.91
2016-11-01T02:19:07.879Z,12.89
2016-11-01T02:20:18.158Z,12.8
2016-11-01T02:21:28.433Z,12.89
2016-11-01T02:22:38.765Z,12.88
2016-11-01T02:23:48.747Z,12.91
2016-11-01T02:24:58.745Z,12.8
2016-11-01T02:26:08.756Z,12.78
2016-11-01T02:27:19.080Z,12.77
2016-11-01T02:28:29.367Z,12.8
2016-11-01T02:29:39.351Z,12.91
2016-11-01T02:30:49.626Z,12.86
2016-11-01T02:31:59.619Z,12.88
2016-11-01T02:33:09.904Z,12.81
2016-11-01T02:34:19.931Z,12.83
2016-11-01T02:35:29.913Z,12.92
2016-11-01T02:36:39.894Z,12.89
2016-11-01T02:37:49.868Z,12.89
2016-11-01T02:38:59.848Z,12.86
2016-11-01T02:40:09.826Z,12.86
2016-11-01T02:41:19.787Z,13.01
2016-11-01T02:42:29.768Z,13.03
2016-11-01T02:43:40.100Z,13.01
2016-11-01T02:44:50.076Z,13.01
2016-11-01T02:46:00.059Z,13.03
2016-11-01T02:47:10.352Z,13.07
2016-11-01T02:48:20.657Z,13.11
2016-11-01T02:49:30.949Z,13.14
2016-11-01T02:50:40.942Z,13.2
2016-11-01T02:51:51.219Z,13.24
2016-11-01T02:53:01.194Z,13.17
2016-11-01T02:54:11.481Z,13.14
2016-11-01T02:55:21.459Z,13.17
2016-11-01T02:56:31.750Z,13.16
2016-11-01T02:57:41.726Z,13.2
2016-11-01T02:58:51.698Z,13.2
2016-11-01T03:00:01.393Z,13.35
2016-11-01T03:01:11.385Z,13.19
2016-11-01T03:32:11.440Z,9.95
2016-11-01T03:33:21.713Z,9.84
2016-11-01T03:34:31.394Z,9.98
2016-11-01T03:35:41.691Z,9.82
2016-11-01T03:36:52.005Z,9.96
2016-11-01T03:38:02.290Z,10.02
2016-11-01T03:39:12.270Z,10.23
2016-11-01T03:40:21.948Z,10.33
2016-11-01T03:41:32.273Z,10.49
2016-11-01T03:42:42.571Z,10.69
2016-11-01T03:43:52.892Z,10.85
2016-11-01T03:45:03.424Z,10.9
2016-11-01T03:46:13.727Z,11.05
2016-11-01T03:47:23.702Z,11.24
2016-11-01T03:48:33.995Z,11.35
2016-11-01T03:49:44.276Z,11.38
2016-11-01T03:50:54.262Z,11.52
2016-11-01T03:52:04.556Z,11.67
2016-11-01T03:53:14.841Z,11.7
2016-11-01T03:54:25.125Z,11.86
2016-11-01T03:55:35.406Z,11.89
2016-11-01T03:56:45.401Z,11.95
2016-11-01T03:57:55.723Z,12.04
2016-11-01T03:59:06.004Z,12.05
2016-11-01T04:00:16.015Z,12.15
2016-11-01T04:01:26.294Z,12.13
2016-11-01T04:02:36.600Z,12.15
2016-11-01T04:03:46.596Z,12.23
2016-11-01T04:04:56.879Z,12.26
2016-11-01T04:06:07.165Z,12.31
2016-11-01T04:07:17.155Z,12.34
2016-11-01T04:08:27.153Z,12.34
2016-11-01T04:09:36.525Z,12.4
2016-11-01T04:10:46.815Z,12.41
2016-11-01T04:11:56.787Z,12.43
2016-11-01T04:13:07.079Z,12.44
2016-11-01T04:14:17.406Z,12.34
2016-11-01T04:15:27.692Z,12.29
2016-11-01T04:16:37.670Z,12.36
2016-11-01T04:17:47.951Z,12.22
2016-11-01T04:18:58.239Z,12.23
2016-11-01T04:20:08.559Z,12.23
2016-11-01T04:21:18.855Z,12.2
2016-11-01T04:22:28.528Z,12.16
2016-11-01T04:23:38.504Z,12.18
2016-11-01T04:24:48.801Z,12.22
2016-11-01T04:25:59.093Z,12.13
2016-11-01T04:27:09.382Z,12.04
2016-11-01T04:28:19.662Z,12.13
2016-11-01T04:29:29.643Z,12.08
2016-11-01T04:30:39.935Z,12
2016-11-01T04:31:50.216Z,12.01
2016-11-01T04:33:00.506Z,11.88
2016-11-01T04:34:10.834Z,12.01
2016-11-01T04:35:20.818Z,11.91
2016-11-01T04:36:31.142Z,11.95
2016-11-01T04:37:41.429Z,11.91
2016-11-01T04:38:51.728Z,11.85
2016-11-01T04:40:02.052Z,11.85
2016-11-01T04:41:12.043Z,11.89
2016-11-01T04:42:22.050Z,11.91
2016-11-01T04:43:32.338Z,11.98
2016-11-01T04:44:42.660Z,11.91
2016-11-01T04:45:52.662Z,11.94
2016-11-01T04:47:02.329Z,11.89
2016-11-01T04:48:12.606Z,11.94
2016-11-01T04:49:22.935Z,11.95
2016-11-01T04:50:33.216Z,11.88
2016-11-01T04:51:43.545Z,11.95
2016-11-01T04:52:53.826Z,11.89
2016-11-01T04:54:04.123Z,11.91
2016-11-01T04:55:14.408Z,11.91
2016-11-01T04:56:24.399Z,11.91
2016-11-01T04:57:34.703Z,12.04
2016-11-01T04:58:44.361Z,12.08
2016-11-01T04:59:54.636Z,12.1
2016-11-01T05:01:04.627Z,12.05
2016-11-01T05:02:14.634Z,12.19
2016-11-01T05:03:24.972Z,12.15
2016-11-01T05:04:35.267Z,12.1
2016-11-01T05:05:45.551Z,12.1
2016-11-01T05:06:55.852Z,12.01
2016-11-01T05:08:06.148Z,11.98
2016-11-01T05:09:16.440Z,12.03
2016-11-01T05:10:26.412Z,11.98
2016-11-01T05:11:36.478Z,11.97
2016-11-01T05:12:46.764Z,11.91
2016-11-01T05:13:56.427Z,12.03
2016-11-01T05:15:06.718Z,11.89
2016-11-01T05:16:16.693Z,11.95
2016-11-01T05:17:26.666Z,11.88
2016-11-01T05:18:36.942Z,11.91
2016-11-01T05:19:46.921Z,12.04
2016-11-01T05:20:56.915Z,12
2016-11-01T05:22:06.917Z,12
2016-11-01T05:23:17.184Z,12.03
2016-11-01T05:24:27.455Z,12.08
2016-11-01T05:25:37.442Z,12.18
2016-11-01T05:26:47.726Z,12.19
2016-11-01T05:27:58.010Z,12.13
2016-11-01T05:29:08.288Z,12.13
2016-11-01T05:30:19.540Z,12.11
2016-11-01T05:31:28.853Z,12.16
2016-11-01T05:32:39.130Z,12.16
2016-11-01T05:33:49.444Z,12.13
2016-11-01T05:34:59.448Z,12.13
2016-11-01T05:36:09.121Z,12.18
2016-11-01T05:37:19.096Z,12.19
2016-11-01T05:38:29.412Z,12.23
2016-11-01T05:39:39.110Z,12.19
2016-11-01T05:40:49.412Z,12.13
2016-11-01T05:41:59.688Z,12.18
2016-11-01T05:43:09.344Z,12.15
2016-11-01T05:44:19.325Z,12.13
2016-11-01T05:45:29.006Z,12.22
2016-11-01T05:46:38.974Z,12.19
2016-11-01T05:47:48.943Z,12.19
2016-11-01T05:48:58.915Z,12.11
2016-11-01T05:50:09.203Z,12.16
2016-11-01T05:51:19.175Z,12.19
2016-11-01T05:52:29.149Z,12.08
2016-11-01T05:53:39.441Z,12.13
2016-11-01T05:54:49.727Z,12.13
2016-11-01T05:55:59.405Z,12.16
2016-11-01T05:57:09.691Z,12.08
2016-11-01T05:58:19.352Z,12.16
2016-11-01T05:59:29.634Z,12.18
2016-11-01T06:00:39.635Z,12.15
2016-11-01T06:01:49.623Z,12.11
2016-11-01T06:02:59.922Z,12.08
2016-11-01T06:04:10.211Z,12.15
2016-11-01T06:05:20.210Z,12.19
2016-11-01T06:06:30.518Z,12.2
2016-11-01T06:07:40.500Z,12.23
2016-11-01T06:08:50.487Z,12.22
2016-11-01T06:10:00.182Z,12.13
2016-11-01T06:11:10.159Z,12.18
2016-11-01T06:12:20.135Z,12.25
2016-11-01T06:13:30.107Z,12.25
2016-11-01T06:14:40.092Z,12.2
2016-11-01T06:15:50.420Z,12.25
2016-11-01T06:17:00.400Z,12.16
2016-11-01T06:18:10.693Z,12.23
2016-11-01T06:19:20.668Z,12.25
2016-11-01T06:20:30.955Z,12.2
2016-11-01T06:21:41.230Z,12.26
2016-11-01T06:22:50.885Z,12.38
2016-11-01T06:24:01.172Z,12.34
2016-11-01T06:25:11.466Z,12.26
2016-11-01T06:26:21.749Z,12.31
2016-11-01T06:27:32.048Z,12.38
2016-11-01T06:28:42.331Z,12.36
2016-11-01T06:29:52.626Z,12.41
2016-11-01T06:31:02.587Z,12.41
2016-11-01T06:32:12.863Z,12.48
2016-11-01T06:33:23.145Z,12.58
2016-11-01T06:34:33.426Z,12.56
2016-11-01T06:35:43.708Z,12.53
2016-11-01T06:36:53.996Z,12.56
2016-11-01T06:38:04.299Z,12.62
2016-11-01T06:39:14.588Z,12.61
2016-11-01T06:40:24.605Z,12.69
2016-11-01T06:41:34.583Z,12.74
2016-11-01T06:42:44.875Z,12.77
2016-11-01T06:43:54.856Z,12.88
2016-11-01T06:45:04.870Z,12.86
2016-11-01T06:46:15.165Z,12.84
2016-11-01T06:47:25.142Z,12.91
2016-11-01T06:48:35.434Z,12.95
2016-11-01T06:49:45.453Z,12.96
2016-11-01T06:50:55.430Z,13.02
2016-11-01T06:52:05.397Z,13.09
2016-11-01T06:53:15.379Z,13.06
2016-11-01T06:54:25.354Z,13.13
2016-11-01T06:55:35.649Z,13.14
2016-11-01T06:56:45.934Z,13.11
2016-11-01T06:57:56.214Z,13.2
2016-11-01T06:59:05.896Z,13.27
2016-11-01T07:00:15.591Z,13.32
2016-11-01T07:01:25.932Z,13.32
2016-11-01T07:02:35.909Z,13.45
2016-11-01T07:03:45.899Z,13.51
2016-11-01T07:04:56.196Z,13.55
2016-11-01T07:06:05.870Z,13.58
2016-11-01T07:07:15.547Z,13.66
2016-11-01T07:08:25.827Z,13.72
2016-11-01T07:09:35.814Z,13.76
2016-11-01T07:10:46.131Z,13.87
2016-11-01T07:11:56.417Z,13.91
2016-11-01T07:13:06.449Z,13.93
2016-11-01T07:14:16.733Z,13.94
2016-11-01T07:15:27.003Z,14.01
2016-11-01T07:16:36.675Z,14.11
2016-11-01T07:17:46.957Z,14.16
2016-11-01T07:18:56.939Z,14.36
2016-11-01T07:20:06.910Z,14.45
2016-11-01T07:21:17.217Z,14.52
2016-11-01T07:22:27.508Z,14.46
2016-11-01T07:23:37.806Z,14.61
2016-11-01T07:24:48.092Z,14.6
2016-11-01T07:25:58.384Z,14.7
2016-11-01T07:27:08.685Z,14.66
2016-11-01T07:28:18.972Z,14.71
2016-11-01T07:29:29.263Z,14.9
2016-11-01T07:30:38.932Z,14.87
2016-11-01T07:31:49.226Z,14.94
2016-11-01T07:32:58.584Z,14.9
2016-11-01T07:34:08.875Z,14.89
2016-11-01T07:35:19.168Z,14.98
2016-11-01T07:36:29.473Z,15.1
2016-11-01T07:37:39.771Z,15.13
2016-11-01T07:38:49.737Z,15.26
2016-11-01T07:39:59.719Z,15.33
2016-11-01T07:41:10.016Z,15.33
2016-11-01T07:42:20.029Z,15.41
2016-11-01T07:43:30.335Z,15.41
2016-11-01T07:44:40.327Z,15.44
2016-11-01T07:45:50.626Z,15.44
2016-11-01T07:47:00.291Z,15.55
2016-11-01T07:48:10.295Z,15.58
2016-11-01T07:49:20.582Z,15.65
2016-11-01T07:50:30.874Z,15.63
2016-11-01T07:51:40.587Z,15.68
2016-11-01T07:52:50.252Z,15.75
2016-11-01T07:54:00.234Z,15.88
2016-11-01T07:55:09.915Z,15.68
2016-11-01T07:56:20.197Z,15.77
2016-11-01T07:57:30.185Z,15.63
2016-11-01T07:58:40.166Z,15.71
2016-11-01T07:59:50.144Z,15.78
2016-11-01T08:01:00.458Z,15.8
2016-11-01T08:02:10.754Z,15.86
2016-11-01T08:03:21.064Z,15.81
2016-11-01T08:04:31.378Z,15.83
2016-11-01T08:05:41.055Z,15.92
2016-11-01T08:06:51.031Z,15.92
2016-11-01T08:08:01.025Z,15.95
2016-11-01T08:09:10.390Z,15.96
2016-11-01T08:10:20.672Z,15.86
2016-11-01T08:11:30.664Z,15.92
2016-11-01T08:12:40.064Z,16.06
2016-11-01T08:13:50.344Z,16.11
2016-11-01T08:15:00.341Z,16.14
2016-11-01T08:16:10.327Z,16.3
2016-11-01T08:17:20.630Z,16.32
2016-11-01T08:18:30.605Z,16.42
2016-11-01T08:19:40.586Z,16.47
2016-11-01T08:20:50.904Z,16.51
2016-11-01T08:22:01.201Z,16.63
2016-11-01T08:23:11.185Z,16.66
2016-11-01T08:24:21.487Z,16.81
2016-11-01T08:25:31.164Z,16.97
2016-11-01T08:26:41.139Z,16.87
2016-11-01T08:27:51.121Z,17.12
2016-11-01T08:29:01.409Z,17.18
2016-11-01T08:30:11.390Z,17.31
2016-11-01T08:31:21.691Z,17.47
2016-11-01T08:32:31.687Z,17.54
2016-11-01T08:33:41.661Z,17.62
2016-11-01T08:34:51.338Z,17.77
2016-11-01T08:36:01.621Z,17.88
2016-11-01T08:37:11.912Z,17.81
2016-11-01T08:38:21.314Z,17.99
2016-11-01T08:39:31.291Z,17.99
2016-11-01T08:40:40.968Z,18.08
2016-11-01T08:41:50.329Z,18.17
2016-11-01T08:43:00.320Z,18.24
2016-11-01T08:44:10.612Z,18.16
2016-11-01T08:45:20.909Z,18.36
2016-11-01T08:46:31.191Z,18.35
2016-11-01T08:47:41.488Z,18.34
2016-11-01T08:48:51.482Z,18.45
2016-11-01T08:50:01.769Z,18.44
2016-11-01T08:51:11.807Z,18.38
2016-11-01T08:52:21.800Z,18.38
2016-11-01T08:53:31.518Z,18.42
2016-11-01T08:54:41.515Z,18.5
2016-11-01T08:55:51.841Z,18.36
2016-11-01T08:57:01.847Z,18.38
2016-11-01T08:58:12.086Z,18.44
2016-11-01T08:59:22.382Z,18.38
2016-11-01T09:00:32.053Z,18.31
2016-11-01T09:01:42.040Z,18.36
2016-11-01T09:02:52.342Z,18.31
2016-11-01T09:04:02.339Z,18.42
2016-11-01T09:05:12.320Z,18.38
2016-11-01T09:06:22.321Z,18.2
2016-11-01T09:07:32.604Z,18.2
2016-11-01T09:08:42.899Z,18.27
2016-11-01T09:09:53.231Z,18.23
2016-11-01T09:11:02.908Z,18.34
2016-11-01T09:12:12.645Z,18.54
2016-11-01T09:13:22.927Z,18.71
2016-11-01T09:14:33.219Z,18.78
2016-11-01T09:15:43.192Z,18.9
2016-11-01T09:16:53.191Z,18.86
2016-11-01T09:18:03.513Z,18.94
2016-11-01T09:19:13.860Z,19.06
2016-11-01T09:20:23.837Z,19.09
2016-11-01T09:21:33.504Z,19.06
2016-11-01T09:22:43.526Z,19.19
2016-11-01T09:23:53.507Z,19.23
2016-11-01T09:25:03.488Z,19.24
2016-11-01T09:26:13.160Z,19.28
2016-11-01T09:27:22.847Z,19.34
2016-11-01T09:28:32.525Z,19.32
2016-11-01T09:29:42.521Z,19.31
2016-11-01T09:30:52.827Z,19.31
2016-11-01T09:32:03.121Z,19.38
2016-11-01T09:33:13.426Z,19.35
2016-11-01T09:34:23.738Z,19.42
2016-11-01T09:35:34.054Z,19.49
2016-11-01T09:36:44.030Z,19.61
2016-11-01T09:37:54.357Z,19.71
2016-11-01T09:39:04.649Z,19.56
2016-11-01T09:40:14.370Z,19.57
2016-11-01T09:41:24.700Z,19.82
2016-11-01T09:42:34.704Z,19.75
2016-11-01T09:43:44.712Z,19.87
2016-11-01T09:44:54.728Z,19.93
2016-11-01T09:46:05.035Z,20.04
2016-11-01T09:47:15.007Z,20.08
2016-11-01T09:48:25.328Z,20.04
2016-11-01T09:49:35.335Z,20.01
2016-11-01T09:50:45.318Z,20.07
2016-11-01T09:51:55.308Z,20.12
2016-11-01T09:53:05.294Z,20.15
2016-11-01T09:54:15.320Z,20.16
2016-11-01T09:55:25.317Z,20.15
2016-11-01T09:56:35.613Z,20.08
2016-11-01T09:57:45.286Z,20.11
2016-11-01T09:58:55.291Z,20.02
2016-11-01T10:00:05.303Z,19.98
2016-11-01T10:01:15.000Z,20.05
2016-11-01T10:02:25.331Z,20.11
2016-11-01T10:03:35.654Z,20.11
2016-11-01T10:04:45.655Z,20.15
2016-11-01T10:05:55.657Z,20.22
2016-11-01T10:07:05.954Z,20.18
2016-11-01T10:08:15.941Z,20.05
2016-11-01T10:09:26.299Z,20.07
2016-11-01T10:10:36.598Z,20.15
2016-11-01T10:11:46.622Z,20.12
2016-11-01T10:12:56.643Z,20.05
2016-11-01T10:14:07.009Z,20.11
2016-11-01T10:15:16.996Z,20.07
2016-11-01T10:16:27.287Z,20.08
2016-11-01T10:17:37.284Z,20.08
2016-11-01T10:18:47.286Z,19.93
2016-11-01T10:19:57.581Z,20.08
2016-11-01T10:21:07.642Z,20.08
2016-11-01T10:22:17.979Z,20.12
2016-11-01T10:23:28.270Z,20.07
2016-11-01T10:24:37.998Z,20.08
2016-11-01T10:25:48.319Z,20.19
2016-11-01T10:26:58.000Z,20.15
2016-11-01T10:28:08.288Z,20.25
2016-11-01T10:29:18.262Z,20.27
2016-11-01T10:30:28.262Z,20.25
2016-11-01T10:31:37.945Z,20.3
2016-11-01T10:32:47.623Z,20.37
2016-11-01T10:33:57.746Z,20.44
2016-11-01T10:35:07.754Z,20.32
2016-11-01T10:36:18.098Z,20.4
2016-11-01T10:37:28.103Z,20.23
2016-11-01T10:38:38.402Z,20.35
2016-11-01T10:39:48.706Z,20.38
2016-11-01T10:40:58.997Z,20.46
2016-11-01T10:42:09.004Z,20.51
2016-11-01T10:43:19.005Z,20.67
2016-11-01T10:44:28.998Z,20.86
2016-11-01T10:45:38.988Z,20.83
2016-11-01T10:46:49.305Z,20.75
2016-11-01T10:47:59.591Z,20.83
2016-11-01T10:49:09.273Z,20.78
2016-11-01T10:50:19.605Z,20.75
2016-11-01T10:51:29.906Z,20.74
2016-11-01T10:52:40.190Z,20.71
2016-11-01T10:53:50.228Z,20.76
2016-11-01T10:55:00.236Z,20.85
2016-11-01T10:56:10.232Z,20.98
2016-11-01T10:57:20.241Z,21.21
2016-11-01T10:58:30.236Z,21.25
2016-11-01T10:59:39.297Z,21.38
2016-11-01T11:00:49.595Z,21.37
2016-11-01T11:01:59.908Z,21.55
2016-11-01T11:03:09.598Z,21.58
2016-11-01T11:04:19.275Z,21.56
2016-11-01T11:05:29.612Z,21.61
2016-11-01T11:06:39.611Z,21.49
2016-11-01T11:07:49.910Z,21.61
2016-11-01T11:09:00.279Z,21.64
2016-11-01T11:10:10.270Z,21.67
2016-11-01T11:11:20.565Z,21.74
2016-11-01T11:12:30.870Z,21.76
2016-11-01T11:13:41.189Z,21.82
2016-11-01T11:14:51.510Z,21.86
2016-11-01T11:16:01.493Z,21.89
2016-11-01T11:17:11.813Z,21.89
2016-11-01T11:18:21.815Z,21.83
2016-11-01T11:19:32.152Z,21.97
2016-11-01T11:20:42.457Z,22.12
2016-11-01T11:21:52.152Z,22.12
2016-11-01T11:23:02.438Z,22.16
2016-11-01T11:24:12.420Z,22.12
2016-11-01T11:25:22.412Z,22.16
2016-11-01T11:26:32.099Z,22.22
2016-11-01T11:27:42.399Z,22.16
2016-11-01T11:28:51.791Z,22.16
2016-11-01T11:30:01.820Z,22.36
2016-11-01T11:31:11.818Z,22.48
2016-11-01T11:32:22.114Z,22.6
2016-11-01T11:33:32.103Z,22.7
2016-11-01T11:34:42.096Z,22.64
2016-11-01T11:35:52.077Z,22.71
2016-11-01T11:37:02.378Z,22.79
2016-11-01T11:38:12.383Z,22.75
2016-11-01T11:39:22.673Z,22.78
2016-11-01T11:40:32.359Z,22.81
2016-11-01T11:41:42.674Z,22.92
2016-11-01T11:42:52.992Z,23.01
2016-11-01T11:44:03.002Z,23.06
2016-11-01T11:45:13.300Z,22.96
2016-11-01T11:46:23.606Z,22.86
2016-11-01T11:47:33.599Z,22.89
2016-11-01T11:48:43.600Z,22.81
2016-11-01T11:49:53.281Z,22.73
2016-11-01T11:51:03.273Z,22.69
2016-11-01T11:52:12.969Z,22.61
2016-11-01T11:53:22.966Z,22.54
2016-11-01T11:54:32.963Z,22.55
2016-11-01T11:55:42.941Z,22.42
2016-11-01T11:56:53.221Z,22.45
2016-11-01T11:58:03.521Z,22.34
2016-11-01T11:59:13.527Z,22.3
2016-11-01T12:00:23.824Z,22.24
2016-11-01T12:01:34.129Z,22.22
2016-11-01T12:02:44.118Z,22.22
2016-11-01T12:03:53.806Z,22.31
2016-11-01T12:05:04.106Z,22.29
2016-11-01T12:06:14.404Z,22.29
2016-11-01T12:07:24.706Z,22.34
2016-11-01T12:08:34.075Z,22.24
2016-11-01T12:09:44.061Z,22.14
2016-11-01T12:10:54.359Z,22.08
2016-11-01T12:12:04.351Z,21.99
2016-11-01T12:13:14.659Z,22
2016-11-01T12:14:24.950Z,22.15
2016-11-01T12:15:34.950Z,22.11
2016-11-01T12:16:45.239Z,22.14
2016-11-01T12:17:55.535Z,22.15
2016-11-01T12:19:05.856Z,22.05
2016-11-01T12:20:16.158Z,21.96
2016-11-01T12:21:26.469Z,21.94
2016-11-01T12:22:36.479Z,21.85
2016-11-01T12:23:46.785Z,21.83
2016-11-01T12:24:57.074Z,21.55
2016-11-01T12:26:07.385Z,21.53
2016-11-01T12:27:17.723Z,21.48
2016-11-01T12:28:28.014Z,21.55
2016-11-01T12:29:38.006Z,21.52
2016-11-01T12:30:47.983Z,21.52
2016-11-01T12:31:57.990Z,21.56
2016-11-01T12:33:07.982Z,21.53
2016-11-01T12:34:17.968Z,21.51
2016-11-01T12:35:28.268Z,21.52
2016-11-01T12:36:37.948Z,21.45
2016-11-01T12:37:47.950Z,21.52
2016-11-01T12:38:58.252Z,21.43
2016-11-01T12:40:08.559Z,21.34
2016-11-01T12:41:18.851Z,21.38
2016-11-01T12:42:29.153Z,21.52
2016-11-01T12:43:38.847Z,21.62
2016-11-01T12:44:49.196Z,21.76
2016-11-01T12:45:59.202Z,21.74
2016-11-01T12:47:09.205Z,21.86
2016-11-01T12:48:19.197Z,21.8
2016-11-01T12:49:28.869Z,21.78
2016-11-01T12:50:39.175Z,21.83
2016-11-01T12:51:49.465Z,21.86
2016-11-01T12:52:59.785Z,21.68
2016-11-01T12:54:09.781Z,21.74
2016-11-01T12:55:19.789Z,21.7
2016-11-01T12:56:29.784Z,21.55
2016-11-01T12:57:41.407Z,21.52
2016-11-01T12:58:55.572Z,21.53
2016-11-01T13:00:10.018Z,21.58
2016-11-01T13:01:24.066Z,21.52
2016-11-01T13:02:36.882Z,21.64
2016-11-01T13:03:48.523Z,21.49
2016-11-01T13:05:01.920Z,21.34
2016-11-01T13:06:16.488Z,21.21
2016-11-01T13:07:29.359Z,21.11
2016-11-01T13:08:39.668Z,20.96
2016-11-01T13:09:49.671Z,20.79
2016-11-01T13:10:59.351Z,20.71
2016-11-01T13:12:09.659Z,20.64
2016-11-01T13:13:19.976Z,20.64
2016-11-01T13:14:29.359Z,20.71
2016-11-01T13:15:39.670Z,20.75
2016-11-01T13:16:49.365Z,20.79
2016-11-01T13:17:59.404Z,20.83
2016-11-01T13:19:09.705Z,20.94
2016-11-01T13:20:20.023Z,20.97
2016-11-01T13:21:30.334Z,20.93
2016-11-01T13:22:40.030Z,20.98
2016-11-01T13:23:50.337Z,20.98
2016-11-01T13:25:00.642Z,20.98
2016-11-01T13:26:10.372Z,21.01
2016-11-01T13:27:20.666Z,21.06
2016-11-01T13:28:30.661Z,21.09
2016-11-01T13:29:40.974Z,21.09
2016-11-01T13:30:51.284Z,20.96
2016-11-01T13:32:01.268Z,20.94
2016-11-01T13:33:11.277Z,20.96
2016-11-01T13:34:21.584Z,20.93
2016-11-01T13:35:31.265Z,21.04
2016-11-01T13:36:41.573Z,21.11
2016-11-01T13:37:51.880Z,21.09
2016-11-01T13:39:01.863Z,21.19
2016-11-01T13:40:12.157Z,21.21
2016-11-01T13:41:22.469Z,21.11
2016-11-01T13:42:32.757Z,21.06
2016-11-01T13:43:42.748Z,21.01
2016-11-01T13:44:52.421Z,21.01
2016-11-01T13:46:02.747Z,20.96
2016-11-01T13:47:13.042Z,20.82
2016-11-01T13:48:23.025Z,20.76
2016-11-01T13:49:32.410Z,20.71
2016-11-01T13:50:42.404Z,20.63
2016-11-01T13:51:52.406Z,20.64
2016-11-01T13:53:02.697Z,20.67
2016-11-01T13:54:12.688Z,20.66
2016-11-01T13:55:23.002Z,20.57
2016-11-01T13:56:32.993Z,20.61
2016-11-01T13:57:43.306Z,20.41
2016-11-01T13:58:52.983Z,20.44
2016-11-01T14:00:02.664Z,20.38
2016-11-01T14:01:12.686Z,20.27
2016-11-01T14:02:22.707Z,20.26
2016-11-01T14:03:33.024Z,20.23
2016-11-01T14:04:43.026Z,20.19
2016-11-01T14:05:52.438Z,20.16
2016-11-01T14:07:02.131Z,20.08
2016-11-01T14:08:12.434Z,20.08
2016-11-01T14:09:22.118Z,20.01
2016-11-01T14:10:32.100Z,20.01
2016-11-01T14:11:42.409Z,19.83
2016-11-01T14:12:52.411Z,19.92
2016-11-01T14:14:02.383Z,19.61
2016-11-01T14:15:12.371Z,19.55
2016-11-01T14:16:22.666Z,19.46
2016-11-01T14:17:32.972Z,19.49
2016-11-01T14:18:42.660Z,19.32
2016-11-01T14:19:52.980Z,19.31
2016-11-01T14:21:02.966Z,19.38
2016-11-01T14:22:13.248Z,19.28
2016-11-01T14:23:23.240Z,19.2
2016-11-01T14:24:33.532Z,19.17
2016-11-01T14:25:43.829Z,19.1
2016-11-01T14:26:53.833Z,19.09
2016-11-01T14:28:04.126Z,19.13
2016-11-01T14:29:13.498Z,18.96
2016-11-01T14:30:23.498Z,18.93
2016-11-01T14:31:33.196Z,18.9
2016-11-01T14:32:43.192Z,18.78
2016-11-01T14:33:52.900Z,18.78
2016-11-01T14:35:03.219Z,18.78
2016-11-01T14:36:13.206Z,18.75
2016-11-01T14:37:23.205Z,18.66
2016-11-01T14:38:33.489Z,18.57
2016-11-01T14:39:43.176Z,18.66
2016-11-01T14:40:52.867Z,18.65
2016-11-01T14:42:02.553Z,18.59
2016-11-01T14:43:12.525Z,18.49
2016-11-01T14:44:22.827Z,18.47
2016-11-01T14:45:32.824Z,18.54
2016-11-01T14:46:43.135Z,18.45
2016-11-01T14:47:52.826Z,18.36
2016-11-01T14:49:03.117Z,18.34
2016-11-01T14:50:13.110Z,18.35
2016-11-01T14:51:22.784Z,18.23
2016-11-01T14:52:33.117Z,18.26
2016-11-01T14:53:43.419Z,18.17
2016-11-01T14:54:53.428Z,18.14
2016-11-01T14:56:04.531Z,18.06
2016-11-01T14:57:18.139Z,18.1
2016-11-01T14:58:29.079Z,18.01
2016-11-01T14:59:39.072Z,17.88
2016-11-01T15:00:49.064Z,17.9
2016-11-01T15:01:59.385Z,17.98
2016-11-01T15:03:09.391Z,17.76
2016-11-01T15:04:19.699Z,17.65
2016-11-01T15:05:30.005Z,17.69
2016-11-01T15:06:40.067Z,17.57
2016-11-01T15:07:50.077Z,17.49
2016-11-01T15:09:00.074Z,17.58
2016-11-01T15:10:09.777Z,17.4
2016-11-01T15:11:20.076Z,17.35
2016-11-01T15:12:30.125Z,17.32
2016-11-01T15:13:40.402Z,17.25
2016-11-01T15:14:50.397Z,17.15
2016-11-01T15:16:00.391Z,17.17
2016-11-01T15:17:10.688Z,17.06
2016-11-01T15:18:20.986Z,17.07
2016-11-01T15:19:30.964Z,17.18
2016-11-01T15:20:40.675Z,17.05
2016-11-01T15:21:50.978Z,17
2016-11-01T15:23:01.279Z,16.92
2016-11-01T15:24:11.271Z,16.87
2016-11-01T15:25:20.969Z,16.82
2016-11-01T15:26:30.969Z,16.82
2016-11-01T15:27:41.265Z,16.63
2016-11-01T15:28:51.236Z,16.73
2016-11-01T15:30:00.919Z,16.63
2016-11-01T15:31:11.202Z,16.54
2016-11-01T15:32:21.198Z,16.52
2016-11-01T15:33:30.875Z,16.62
2016-11-01T15:34:40.564Z,16.51
2016-11-01T15:35:50.860Z,16.48